Pagina principale
METAR-TAF:

METAR-TAF

Aeroporti :

Air Force Base Waterkloof

Waterkloof, Sudafrica

latitudine: 25-50S, longitudine: 028-13E, altezza: 1498 m

Osservazione

Il bollettino è stato emesso 10 minuti fa, alle 03:00 UTC
Vento 9 kt da sud-est con raffiche fino a 20 kt
Temperature 13°C
Umidità 88%
Pressione 1024 hPa

METAR: FAWK 240300Z AUTO 14009G20KT //// // ////// 13/11 Q1024

Ora: 05:10 (03:10 UTC)

Previsione

Il bollettino è stato emesso 18 ore e 10 minuti fa, alle 09:00 UTC
Previsione valida dal 23 alle 10 UTC al 23 alle 18 UTC
Vento 16 kt da est
Visibilità 10 km o più
Nuvoloso ad un'altezza di 2500 ft
Probabilità 30% :
Temporaneamente
dal 23 alle 11 UTC al 23 alle 14 UTC
Poco nuvoloso ad un'altezza di 3500 ft, Cumulonembo.
temporale, pioggia debole

TAF: FAWK 230900Z 2310/2318 10016KT 9999 BKN025 TX25/2312Z TN20/2318Z PROB30 TEMPO 2311/2314 -TSRA FEW035CB

Osservazioni e previsioni meteorologiche di più di 4000 aeroporti (messaggi METAR e TAF).

Le stazioni disponibili sono rappresentate dai dischi gialli e rossi sulla carta.

Puntare il mouse per vedere il nome della stazione.

Clicca sopra per visualizzare le osservazioni e previsioni meteorologiche.

Per cambiare la mappa : fare clic sui pulsanti verdi con una croce nera per ingrandire, il pulsante verde con un trattino per diminuire, o sulla freccia verde per le mappe adiacenti.


METAR-TAF: